Weather History for Coleman, TX

Change the Weather History Date:

Tuesday, January 14, 2014

  Actual Average (KABI) Record (KABI)
Temperature  
Mean Temperature 48 °F 45 °F  
Max Temperature 63 °F 57 °F 82 °F (1928)
Min Temperature 33 °F 33 °F -2 °F (1888)
Degree Days  
Heating Degree Days 17 20  
Month to date heating degree days 290  
Since 1 July heating degree days 1335  
Cooling Degree Days 0 0  
Month to date cooling degree days 0  
Year to date cooling degree days 0  
Moisture  
Dew Point 18 °F    
Average Humidity 31    
Maximum Humidity 51    
Minimum Humidity 16    
Precipitation  
Precipitation 0.00 in 0.02 in 1.21 in (1889)
Month to date precipitation 0.40  
Year to date precipitation 0.40  
Sea Level Pressure  
Sea Level Pressure 30.15 in    
Wind  
Wind Speed 9 mph (NW)    
Max Wind Speed 28 mph    
Max Gust Speed 33 mph    
Visibility 10 miles    
Events      
T = Trace of Precipitation, MM = Missing Value Source: NWS Daily Summary

Daily Weather History Graph

Daily Weather History Graph

Search for Another Location

Airport:

Trip Planner

Search our weather history database for the weather conditions in past years. The results will help you decide how hot, cold, wet, or windy it might be!

Date:

Astronomy

Jan. 14, 2014 Rise Set
Actual Time 7:38 AM CST 5:55 PM CST
Civil Twilight 7:11 AM CST 6:21 PM CST
Nautical Twilight 6:41 AM CST 6:51 PM CST
Astronomical Twilight 6:12 AM CST 7:21 PM CST
Moon 5:00 PM CST (1/14) 6:15 AM CST (1/14)
Length of Visible Light 11h 10m
Length of Day
10h 17m
Waxing Gibbous, 98% of the Moon is Illuminated
Jan 14
Waxing Gibbous
Jan 15
Full
Jan 23
Last Quarter
Jan 30
New
Feb 6
First Quarter

Hourly Weather History & Observations

Time (CST) Temp. Windchill Dew Point Humidity Pressure Visibility Wind Dir Wind Speed Gust Speed Precip Events Conditions
12:15 AM 36.0 °F 33.3 °F 17.6 °F 47% 30.08 in 10.0 mi WSW 3.5 mph - N/A   Clear
12:35 AM 34.7 °F 30.6 °F 18.3 °F 51% 30.08 in 10.0 mi WSW 4.6 mph - N/A   Clear
12:55 AM 38.1 °F 33.7 °F 16.0 °F 41% 30.08 in 10.0 mi West 5.8 mph - N/A   Clear
1:15 AM 36.7 °F 32.0 °F 16.7 °F 44% 30.07 in 10.0 mi West 5.8 mph - N/A   Clear
1:35 AM 39.7 °F 36.5 °F 14.2 °F 35% 30.07 in 10.0 mi West 4.6 mph - N/A   Clear
1:55 AM 37.9 °F - 14.7 °F 39% 30.07 in 10.0 mi Calm Calm - N/A   Clear
2:15 AM 35.2 °F - 15.6 °F 45% 30.07 in 10.0 mi Calm Calm - N/A   Clear
2:35 AM 37.6 °F 35.1 °F 13.8 °F 38% 30.06 in 10.0 mi SW 3.5 mph - N/A   Clear
2:55 AM 34.7 °F - 14.9 °F 44% 30.06 in 10.0 mi Calm Calm - N/A   Clear
3:15 AM 36.9 °F 34.3 °F 14.2 °F 40% 30.05 in 10.0 mi SSW 3.5 mph - N/A   Clear
3:35 AM 38.3 °F 35.9 °F 13.1 °F 36% 30.04 in 10.0 mi SW 3.5 mph - N/A   Clear
3:55 AM 33.8 °F 28.6 °F 15.1 °F 46% 30.04 in 10.0 mi South 5.8 mph - N/A   Clear
4:15 AM 38.5 °F 34.1 °F 13.1 °F 35% 30.04 in 10.0 mi SSW 5.8 mph - N/A   Clear
4:35 AM 42.1 °F 40.2 °F 11.8 °F 29% 30.03 in 10.0 mi SSW 3.5 mph - N/A   Clear
4:55 AM 42.3 °F 36.8 °F 12.6 °F 30% 30.03 in 10.0 mi West 9.2 mph - N/A   Clear
5:15 AM 43.7 °F 38.1 °F 12.6 °F 28% 30.04 in 10.0 mi West 10.4 mph - N/A   Clear
5:35 AM 43.9 °F 37.5 °F 11.7 °F 27% 30.04 in 10.0 mi WSW 12.7 mph - N/A   Clear
5:55 AM 44.8 °F 38.3 °F 10.9 °F 25% 30.03 in 10.0 mi WSW 13.8 mph 19.6 mph N/A   Clear
6:15 AM 45.5 °F 38.6 °F 10.4 °F 24% 30.04 in 10.0 mi West 16.1 mph 23.0 mph N/A   Clear
6:35 AM 45.5 °F 39.6 °F 10.2 °F 24% 30.04 in 10.0 mi West 12.7 mph - N/A   Clear
6:55 AM 44.2 °F 38.0 °F 10.2 °F 25% 30.03 in 10.0 mi WSW 12.7 mph - N/A   Clear
7:15 AM 44.6 °F 38.4 °F 10.0 °F 25% 30.04 in 10.0 mi West 12.7 mph 18.4 mph N/A   Clear
7:35 AM 44.4 °F 38.6 °F 10.0 °F 25% 30.05 in 10.0 mi WSW 11.5 mph - N/A   Clear
7:55 AM 43.3 °F 38.1 °F 10.8 °F 27% 30.06 in 10.0 mi WSW 9.2 mph - N/A   Clear
8:15 AM 44.8 °F 39.4 °F 10.9 °F 25% 30.06 in 10.0 mi WSW 10.4 mph 17.3 mph N/A   Clear
8:35 AM 45.7 °F 40.6 °F 11.8 °F 25% 30.07 in 10.0 mi West 10.4 mph 17.3 mph N/A   Clear
8:55 AM 47.1 °F - 12.7 °F 25% 30.07 in 10.0 mi West 9.2 mph - N/A   Clear
9:15 AM 49.1 °F - 13.6 °F 24% 30.07 in 10.0 mi West 8.1 mph - N/A   Clear
9:35 AM 51.8 °F - 14.2 °F 22% 30.08 in 10.0 mi West 9.2 mph - N/A   Clear
9:55 AM 52.7 °F - 14.4 °F 22% 30.08 in 10.0 mi West 11.5 mph 17.3 mph N/A   Clear
10:15 AM 54.1 °F - 14.9 °F 21% 30.09 in 10.0 mi West 10.4 mph - N/A   Clear
10:35 AM 54.7 °F - 15.1 °F 21% 30.09 in 10.0 mi NW 9.2 mph - N/A   Clear
10:55 AM 56.3 °F - 14.9 °F 20% 30.10 in 10.0 mi NW 15.0 mph 18.4 mph N/A   Clear
11:15 AM 56.1 °F - 16.2 °F 21% 30.11 in 10.0 mi NW 15.0 mph 23.0 mph N/A   Clear
11:35 AM 56.1 °F - 16.5 °F 21% 30.10 in 10.0 mi NNW 11.5 mph - N/A   Clear
11:55 AM 56.7 °F - 17.2 °F 21% 30.10 in 10.0 mi NW 13.8 mph - N/A   Clear
12:15 PM 58.3 °F - 16.2 °F 19% 30.09 in 10.0 mi NNW 8.1 mph - N/A   Clear
12:35 PM 59.7 °F - 16.5 °F 19% 30.08 in 10.0 mi NNW 11.5 mph 20.7 mph N/A   Clear
12:55 PM 60.8 °F - 16.5 °F 18% 30.08 in 10.0 mi NNW 15.0 mph 21.9 mph N/A   Clear
1:15 PM 61.2 °F - 17.1 °F 18% 30.08 in 10.0 mi NNW 15.0 mph 23.0 mph N/A   Clear
1:35 PM 61.2 °F - 16.5 °F 18% 30.08 in 10.0 mi NNW 19.6 mph 25.3 mph N/A   Clear
1:55 PM 62.1 °F - 16.5 °F 17% 30.09 in 10.0 mi North 13.8 mph 25.3 mph N/A   Clear
2:15 PM 63.5 °F - 16.5 °F 16% 30.09 in 10.0 mi North 17.3 mph 27.6 mph N/A   Clear
2:35 PM 63.3 °F - 20.5 °F 19% 30.11 in 10.0 mi North 23.0 mph 28.8 mph N/A   Clear
2:55 PM 63.3 °F - 23.7 °F 22% 30.11 in 10.0 mi North 23.0 mph 26.5 mph N/A   Clear
3:15 PM 63.1 °F - 25.7 °F 24% 30.12 in 10.0 mi North 18.4 mph 31.1 mph N/A   Clear
3:35 PM 63.5 °F - 27.5 °F 26% 30.13 in 10.0 mi North 17.3 mph 31.1 mph N/A   Clear
3:55 PM 63.5 °F - 27.7 °F 26% 30.15 in 10.0 mi North 23.0 mph 32.2 mph N/A   Clear
4:15 PM 63.1 °F - 27.0 °F 25% 30.16 in 10.0 mi NNE 25.3 mph 32.2 mph N/A   Clear
4:35 PM 62.6 °F - 27.1 °F 26% 30.17 in 10.0 mi NNE 24.2 mph 29.9 mph N/A   Clear
4:55 PM 61.7 °F - 26.6 °F 26% 30.18 in 10.0 mi NNE 23.0 mph 32.2 mph N/A   Clear
5:15 PM 60.6 °F - 25.7 °F 26% 30.20 in 10.0 mi North 23.0 mph 29.9 mph N/A   Clear
5:35 PM 59.2 °F - 27.9 °F 30% 30.22 in 10.0 mi North 27.6 mph 33.4 mph N/A   Clear
5:55 PM 55.9 °F - 28.9 °F 36% 30.25 in 10.0 mi North 21.9 mph 29.9 mph N/A   Clear
6:15 PM 53.4 °F - 29.8 °F 40% 30.27 in 10.0 mi North 15.0 mph - N/A   Clear
6:35 PM 52.3 °F - 29.8 °F 42% 30.29 in 10.0 mi NNE 16.1 mph 28.8 mph N/A   Clear
6:55 PM 51.1 °F - 29.8 °F 44% 30.30 in 10.0 mi North 13.8 mph - N/A   Clear
7:15 PM 50.4 °F - 28.9 °F 44% 30.32 in 10.0 mi North 11.5 mph - N/A   Clear
7:35 PM 49.6 °F - 27.7 °F 43% 30.33 in 10.0 mi North 11.5 mph 18.4 mph N/A   Clear
7:55 PM 48.6 °F - 26.6 °F 42% 30.34 in 10.0 mi North 15.0 mph 18.4 mph N/A   Clear
8:15 PM 48.6 °F - 25.5 °F 41% 30.35 in 10.0 mi North 15.0 mph - N/A   Clear
8:35 PM 47.5 °F - 24.6 °F 41% 30.36 in 10.0 mi NNE 12.7 mph - N/A   Clear
8:55 PM 46.2 °F 41.2 °F 24.3 °F 42% 30.36 in 10.0 mi North 10.4 mph - N/A   Clear
9:15 PM 46.2 °F 40.5 °F 23.0 °F 40% 30.37 in 10.0 mi North 12.7 mph - N/A   Clear
9:35 PM 45.0 °F 39.7 °F 22.1 °F 40% 30.37 in 10.0 mi North 10.4 mph - N/A   Clear
9:55 PM 43.5 °F 37.5 °F 21.0 °F 41% 30.39 in 10.0 mi North 11.5 mph - N/A   Clear
10:15 PM 42.8 °F 37.5 °F 19.2 °F 39% 30.40 in 10.0 mi North 9.2 mph - N/A   Clear
10:35 PM 42.1 °F 38.4 °F 17.8 °F 38% 30.40 in 10.0 mi NNW 5.8 mph - N/A   Clear
10:55 PM 42.3 °F 37.9 °F 16.7 °F 36% 30.41 in 10.0 mi NNW 6.9 mph - N/A   Clear
11:15 PM 41.2 °F 37.3 °F 15.4 °F 35% 30.39 in 10.0 mi NNW 5.8 mph - N/A   Clear
11:35 PM 40.6 °F 36.0 °F 14.7 °F 35% 30.39 in 10.0 mi North 6.9 mph - N/A   Scattered Clouds
11:55 PM 40.6 °F 37.5 °F 13.8 °F 34% 30.38 in 10.0 mi NW 4.6 mph - N/A   Scattered Clouds